Time;durP1;ratioP1;P1;durP2;ratioP2;P2;SDS_P1;SDS_P2;PMS_P1;PMS_P2;Temp;Humidity;BMP_temperature;BMP_pressure;BME280_temperature;BME280_humidity;BME280_pressure;Samples;Min_cycle;Max_cycle;Signal;HPM_P1;HPM_P2
2022/04/24 00:00:52;;;;;;;2.50;1.35;;;;;;;10.80;100.00;63111.91;5113522;28;20202;-79
2022/04/24 00:03:19;;;;;;;1.45;0.98;;;;;;;10.81;100.00;63112.41;5113580;28;20234;-79
2022/04/24 00:05:47;;;;;;;1.85;1.33;;;;;;;10.76;100.00;63107.25;5112852;28;20199;-79
2022/04/24 00:08:15;;;;;;;3.25;1.27;;;;;;;10.89;99.97;63118.16;5112505;28;20216;-78
2022/04/24 00:10:42;;;;;;;2.08;1.25;;;;;;;10.90;99.47;63124.81;5109498;28;20188;-80
2022/04/24 00:13:11;;;;;;;3.10;1.10;;;;;;;10.91;99.52;63122.75;5107479;28;20265;-79
2022/04/24 00:15:39;;;;;;;0.80;0.75;;;;;;;10.92;99.31;63126.88;5107244;28;20196;-80
2022/04/24 00:18:06;;;;;;;3.63;1.10;;;;;;;10.95;99.27;63124.38;5107512;28;20228;-81
2022/04/24 00:20:33;;;;;;;2.25;1.10;;;;;;;10.96;98.96;63125.91;5106739;28;20305;-80
2022/04/24 00:23:00;;;;;;;1.35;1.23;;;;;;;10.96;98.92;63131.00;5106732;28;20412;-80
2022/04/24 00:25:28;;;;;;;4.28;1.33;;;;;;;10.87;99.32;63118.63;5107728;28;20212;-80
2022/04/24 00:27:55;;;;;;;2.63;0.85;;;;;;;10.82;99.35;63113.47;5106997;28;20214;-79
2022/04/24 00:30:22;;;;;;;5.05;1.40;;;;;;;10.77;99.36;63108.78;5107146;28;20196;-81
2022/04/24 00:32:49;;;;;;;0.68;0.60;;;;;;;10.73;99.41;63104.13;5108624;28;20219;-79
2022/04/24 00:35:15;;;;;;;2.30;1.45;;;;;;;10.63;99.65;63091.25;5108444;28;20200;-80
2022/04/24 00:37:42;;;;;;;1.83;0.90;;;;;;;10.58;100.00;63091.66;5108011;28;20238;-80
2022/04/24 00:40:10;;;;;;;1.80;1.17;;;;;;;10.52;100.00;63082.91;5107037;28;20196;-80
2022/04/24 00:42:39;;;;;;;3.30;1.10;;;;;;;10.40;100.00;63068.47;5107981;28;20247;-80
2022/04/24 00:45:07;;;;;;;4.18;1.10;;;;;;;10.34;100.00;63069.38;5107430;28;20195;-79
2022/04/24 00:47:33;;;;;;;8.73;1.30;;;;;;;10.32;100.00;63057.66;5107277;28;20220;-80
2022/04/24 00:50:00;;;;;;;10.27;1.00;;;;;;;10.22;100.00;63054.41;5106603;28;20199;-79
2022/04/24 00:52:27;;;;;;;1.15;1.15;;;;;;;10.10;100.00;63039.44;5108119;28;20291;-79
2022/04/24 00:54:54;;;;;;;2.55;1.10;;;;;;;10.09;100.00;63038.94;5107673;28;20250;-80
2022/04/24 00:57:21;;;;;;;0.93;0.88;;;;;;;10.02;100.00;63031.69;5107409;28;20307;-79
2022/04/24 00:59:49;;;;;;;1.40;1.30;;;;;;;9.99;100.00;63031.09;5109009;28;20200;-79
2022/04/24 01:02:16;;;;;;;2.85;1.08;;;;;;;9.99;100.00;63028.56;5112471;28;20247;-79
2022/04/24 01:04:43;;;;;;;5.15;1.13;;;;;;;9.90;100.00;63021.81;5115478;28;20391;-79
2022/04/24 01:07:10;;;;;;;2.42;1.33;;;;;;;9.84;100.00;63012.53;5116877;28;20242;-79
2022/04/24 01:09:37;;;;;;;9.00;1.83;;;;;;;9.80;100.00;63008.91;5112784;28;20192;-79
2022/04/24 01:12:05;;;;;;;2.40;1.00;;;;;;;9.83;100.00;63009.47;5111061;28;20238;-79
2022/04/24 01:14:33;;;;;;;4.60;1.50;;;;;;;9.83;100.00;63014.06;5109830;28;20196;-80
2022/04/24 01:17:02;;;;;;;1.20;1.00;;;;;;;9.92;100.00;63020.81;5109019;28;20267;-80
2022/04/24 01:19:30;;;;;;;2.88;1.20;;;;;;;9.82;100.00;63005.91;5109420;28;20196;-80
2022/04/24 01:21:59;;;;;;;2.78;0.80;;;;;;;9.85;100.00;63014.09;5112023;28;20205;-79
2022/04/24 01:24:28;;;;;;;5.70;1.05;;;;;;;9.87;100.00;63016.16;5111594;28;20212;-80
2022/04/24 01:26:55;;;;;;;0.95;0.73;;;;;;;9.98;100.00;63027.53;5110727;28;20497;-79
2022/04/24 01:29:22;;;;;;;3.10;1.02;;;;;;;10.01;100.00;63033.19;5110418;28;20210;-79
2022/04/24 01:31:49;;;;;;;4.80;1.10;;;;;;;10.00;100.00;63027.06;5110268;28;20566;-80
2022/04/24 01:34:17;;;;;;;1.80;1.10;;;;;;;10.00;100.00;63031.63;5110827;28;20319;-80
2022/04/24 01:36:44;;;;;;;3.08;1.58;;;;;;;10.03;100.00;63035.25;5110374;28;20238;-79
2022/04/24 01:39:14;;;;;;;4.47;1.90;;;;;;;10.11;100.00;63041.00;5109734;28;20543;-79
2022/04/24 01:41:40;;;;;;;8.10;2.28;;;;;;;10.08;100.00;63042.44;5109311;28;20231;-79
2022/04/24 01:44:08;;;;;;;2.17;1.67;;;;;;;10.11;100.00;63035.41;5108405;28;20240;-80
2022/04/24 01:46:35;;;;;;;3.92;2.03;;;;;;;10.12;100.00;63036.44;5108082;28;20213;-79
2022/04/24 01:49:02;;;;;;;4.03;1.70;;;;;;;10.05;100.00;63034.78;5108625;28;20544;-80
2022/04/24 01:51:29;;;;;;;4.00;2.45;;;;;;;10.04;100.00;63033.22;5111589;28;20192;-81
2022/04/24 01:53:56;;;;;;;4.70;3.10;;;;;;;10.06;100.00;63038.34;5110259;28;20244;-80
2022/04/24 01:56:24;;;;;;;5.15;1.90;;;;;;;10.06;100.00;63033.25;5110681;28;20196;-81
2022/04/24 01:58:50;;;;;;;2.95;1.55;;;;;;;9.99;100.00;63028.56;5109753;28;20220;-79
2022/04/24 02:01:17;;;;;;;3.60;2.60;;;;;;;9.91;100.00;63014.69;5110350;28;20196;-80
2022/04/24 02:03:44;;;;;;;7.97;3.10;;;;;;;9.82;100.00;63010.97;5109269;28;20235;-79
2022/04/24 02:06:12;;;;;;;5.32;2.65;;;;;;;9.80;100.00;63005.88;5109981;28;20196;-80
2022/04/24 02:08:39;;;;;;;3.72;3.33;;;;;;;9.73;100.00;62998.63;5110154;28;20216;-79
2022/04/24 02:11:06;;;;;;;3.17;2.83;;;;;;;9.66;100.00;62991.91;5109848;28;20196;-81
2022/04/24 02:13:35;;;;;;;2.53;2.33;;;;;;;9.61;100.00;62986.72;5109142;28;20269;-80
2022/04/24 02:16:04;;;;;;;4.97;2.65;;;;;;;9.59;100.00;62981.59;5108932;28;20524;-80
2022/04/24 02:18:31;;;;;;;2.95;2.53;;;;;;;9.55;100.00;62982.53;5109337;28;20582;-81
2022/04/24 02:20:58;;;;;;;10.35;3.97;;;;;;;9.51;100.00;62978.94;5108906;28;20211;-79
2022/04/24 02:23:25;;;;;;;5.43;2.60;;;;;;;9.49;100.00;62973.81;5109701;28;20227;-79
2022/04/24 02:25:52;;;;;;;4.88;2.60;;;;;;;9.48;100.00;62975.81;5108576;28;20260;-80
2022/04/24 02:28:19;;;;;;;2.72;2.17;;;;;;;9.32;100.00;62959.81;5108159;28;20567;-80
2022/04/24 02:30:47;;;;;;;6.40;2.33;;;;;;;9.37;100.00;62967.00;5107975;28;20208;-79
2022/04/24 02:33:14;;;;;;;7.07;2.65;;;;;;;9.25;100.00;62950.03;5108346;28;20220;-79
2022/04/24 02:35:40;;;;;;;3.47;2.08;;;;;;;9.27;100.00;62959.19;5110169;28;20513;-80
2022/04/24 02:38:07;;;;;;;8.10;2.00;;;;;;;9.25;100.00;62950.03;5110023;28;20220;-81
2022/04/24 02:40:34;;;;;;;3.47;1.50;;;;;;;9.24;100.00;62948.47;5109886;28;20192;-80
2022/04/24 02:43:01;;;;;;;1.20;0.90;;;;;;;9.21;100.00;62948.41;5110108;28;20560;-80
2022/04/24 02:45:28;;;;;;;3.40;1.30;;;;;;;9.14;100.00;62940.69;5110066;28;20195;-79
2022/04/24 02:47:56;;;;;;;2.42;1.70;;;;;;;9.20;100.00;62944.84;5112024;28;20261;-80
2022/04/24 02:50:24;;;;;;;1.15;1.10;;;;;;;9.21;100.00;62945.88;5110816;28;20196;-79
2022/04/24 02:52:53;;;;;;;1.13;0.93;;;;;;;9.17;100.00;62941.25;5111162;28;20216;-80
2022/04/24 02:55:21;;;;;;;1.20;1.10;;;;;;;9.08;100.00;62935.00;5110288;28;20275;-79
2022/04/24 02:57:48;;;;;;;4.32;1.52;;;;;;;9.05;100.00;62931.38;5110326;28;20262;-79
2022/04/24 03:00:19;;;;;;;2.03;1.13;;;;;;;9.04;100.00;62933.38;5109721;28;20202;-80
2022/04/24 03:02:47;;;;;;;1.23;1.17;;;;;;;9.00;100.00;62923.66;5109437;28;20232;-81
2022/04/24 03:05:17;;;;;;;2.15;1.90;;;;;;;9.05;100.00;62931.91;5109347;28;20536;-80
2022/04/24 03:07:44;;;;;;;2.97;1.67;;;;;;;9.07;100.00;62938.53;5109995;28;20253;-80
2022/04/24 03:10:12;;;;;;;2.30;1.60;;;;;;;9.04;100.00;62927.81;5110461;28;20196;-79
2022/04/24 03:12:39;;;;;;;2.80;1.65;;;;;;;9.04;100.00;62930.34;5113115;28;20219;-79
2022/04/24 03:15:07;;;;;;;2.58;1.98;;;;;;;9.00;100.00;62924.19;5113685;28;20192;-79
2022/04/24 03:17:34;;;;;;;1.80;1.50;;;;;;;9.05;100.00;62933.91;5114410;28;20212;-78
2022/04/24 03:20:01;;;;;;;2.08;1.40;;;;;;;9.06;100.00;62940.53;5109616;28;20242;-79
2022/04/24 03:22:30;;;;;;;3.20;1.77;;;;;;;9.07;100.00;62933.97;5108689;28;20223;-80
2022/04/24 03:25:00;;;;;;;5.57;2.08;;;;;;;9.03;100.00;62929.31;5108081;28;20253;-79
2022/04/24 03:27:26;;;;;;;2.08;1.98;;;;;;;9.00;100.00;62921.66;5114448;28;20267;-79
2022/04/24 03:29:53;;;;;;;4.90;2.05;;;;;;;8.94;100.00;62920.50;5115188;28;20199;-79
2022/04/24 03:32:20;;;;;;;1.95;1.77;;;;;;;8.97;100.00;62920.56;5112151;28;20216;-80
2022/04/24 03:34:47;;;;;;;1.95;1.75;;;;;;;8.92;100.00;62920.47;5109008;28;20200;-79
2022/04/24 03:37:14;;;;;;;2.17;2.08;;;;;;;8.88;100.00;62914.31;5108466;28;20569;-80
2022/04/24 03:39:42;;;;;;;2.58;1.88;;;;;;;8.90;100.00;62915.88;5107377;28;20207;-79
2022/04/24 03:42:09;;;;;;;2.45;1.92;;;;;;;8.89;100.00;62912.28;5107060;28;20415;-79
2022/04/24 03:44:36;;;;;;;2.20;2.00;;;;;;;8.92;100.00;62923.03;5106480;28;20548;-80
2022/04/24 03:47:03;;;;;;;2.35;1.25;;;;;;;8.85;100.00;62908.16;5112537;28;20220;-80
2022/04/24 03:49:30;;;;;;;4.13;1.92;;;;;;;8.95;100.00;62921.56;5110071;28;20192;-79
2022/04/24 03:51:57;;;;;;;1.98;1.55;;;;;;;8.98;100.00;62919.59;5113060;28;20196;-79
2022/04/24 03:54:24;;;;;;;1.85;1.75;;;;;;;8.97;100.00;62921.06;5114760;28;20203;-79
2022/04/24 03:56:52;;;;;;;1.90;1.40;;;;;;;9.06;100.00;62927.34;5114440;28;20200;-80
2022/04/24 03:59:19;;;;;;;4.80;1.20;;;;;;;9.09;100.00;62938.06;5110543;28;20195;-80
2022/04/24 04:01:46;;;;;;;1.38;1.35;;;;;;;9.19;100.00;62945.84;5109678;28;20196;-79
2022/04/24 04:04:12;;;;;;;1.98;1.40;;;;;;;9.28;100.00;62953.13;5107357;28;20264;-80
2022/04/24 04:06:39;;;;;;;2.40;1.67;;;;;;;9.32;100.00;62957.25;5107695;28;20250;-79
2022/04/24 04:09:06;;;;;;;2.55;1.70;;;;;;;9.45;100.00;62970.19;5107487;28;20238;-80
2022/04/24 04:11:33;;;;;;;2.75;1.60;;;;;;;9.61;100.00;62989.25;5108435;28;20199;-80
2022/04/24 04:14:01;;;;;;;2.47;1.10;;;;;;;9.70;100.00;62998.56;5107753;28;20242;-80
2022/04/24 04:16:28;;;;;;;2.42;1.73;;;;;;;9.89;100.00;63015.69;5107813;28;20196;-80
2022/04/24 04:18:55;;;;;;;2.95;1.38;;;;;;;9.98;100.00;63025.00;5108309;28;20215;-80
2022/04/24 04:21:22;;;;;;;3.97;1.60;;;;;;;10.10;100.00;63042.00;5106829;28;20215;-81
2022/04/24 04:23:49;;;;;;;3.10;1.52;;;;;;;10.29;100.00;63056.56;5107482;28;20236;-81
2022/04/24 04:26:17;;;;;;;3.60;1.42;;;;;;;10.48;100.00;63078.78;5107272;28;20481;-79
2022/04/24 04:28:45;;;;;;;2.47;1.30;;;;;;;10.62;100.00;63095.28;5107009;28;20216;-80
2022/04/24 04:31:14;;;;;;;5.85;1.85;;;;;;;10.78;100.00;63109.31;5107188;28;20199;-80
2022/04/24 04:33:41;;;;;;;2.38;1.83;;;;;;;10.90;100.00;63121.72;5107672;28;20216;-81
2022/04/24 04:36:08;;;;;;;2.88;2.22;;;;;;;10.91;100.00;63123.28;5107697;28;20220;-80
2022/04/24 04:38:35;;;;;;;2.40;1.73;;;;;;;11.10;100.00;63144.97;5110260;28;20212;-81
2022/04/24 04:41:02;;;;;;;1.85;1.70;;;;;;;11.14;100.00;63147.09;5109654;28;20241;-80
2022/04/24 04:43:29;;;;;;;5.38;2.03;;;;;;;11.08;100.00;63137.84;5109769;28;20273;-80
2022/04/24 04:45:56;;;;;;;4.95;1.98;;;;;;;11.01;100.00;63130.59;5109440;28;20196;-80
2022/04/24 04:48:24;;;;;;;2.10;1.80;;;;;;;10.84;100.00;63118.59;5110049;28;20749;-80
2022/04/24 04:50:51;;;;;;;6.00;3.40;;;;;;;10.70;100.00;63098.50;5111877;28;20192;-79
2022/04/24 04:53:18;;;;;;;5.15;3.90;;;;;;;10.70;100.00;63098.50;5110090;28;20222;-80
2022/04/24 04:55:46;;;;;;;6.40;4.32;;;;;;;10.62;100.00;63093.28;5112054;28;20220;-80
2022/04/24 04:58:13;;;;;;;9.48;4.30;;;;;;;10.52;100.00;63085.47;5111403;28;20215;-79
2022/04/24 05:00:40;;;;;;;5.03;4.53;;;;;;;10.55;100.00;63086.03;5110987;28;20214;-80
2022/04/24 05:03:07;;;;;;;7.05;4.40;;;;;;;10.56;100.00;63087.03;5110725;28;20224;-79
2022/04/24 05:05:36;;;;;;;9.13;4.50;;;;;;;10.38;100.00;63068.44;5111352;28;20207;-80
2022/04/24 05:08:03;;;;;;;6.90;4.03;;;;;;;10.45;100.00;63073.13;5111796;28;20223;-81
2022/04/24 05:10:30;;;;;;;4.18;3.88;;;;;;;10.55;100.00;63085.50;5110994;28;20200;-80
2022/04/24 05:12:57;;;;;;;4.13;3.72;;;;;;;10.68;100.00;63099.50;5110936;28;20422;-81
2022/04/24 05:15:25;;;;;;;9.20;4.00;;;;;;;10.99;100.00;63128.50;5111928;28;20203;-80
2022/04/24 05:17:52;;;;;;;5.25;3.80;;;;;;;11.13;100.00;63146.06;5111340;28;20265;-80
2022/04/24 05:20:20;;;;;;;7.63;3.95;;;;;;;11.02;100.00;63134.69;5112899;28;20199;-80
2022/04/24 05:22:48;;;;;;;9.63;3.90;;;;;;;11.02;100.00;63137.22;5113636;28;20226;-80
2022/04/24 05:25:15;;;;;;;4.13;3.30;;;;;;;11.18;100.00;63151.25;5116977;28;20253;-79
2022/04/24 05:27:42;;;;;;;8.93;3.70;;;;;;;11.28;100.00;63156.00;5116508;28;20216;-79
2022/04/24 05:30:10;;;;;;;6.68;3.75;;;;;;;11.42;100.00;63173.53;5112510;28;20192;-79
2022/04/24 05:32:41;;;;;;;3.42;3.17;;;;;;;11.63;100.00;63197.34;5111020;28;20224;-80
2022/04/24 05:35:09;;;;;;;6.97;4.40;;;;;;;11.94;100.00;63229.47;5110783;28;20237;-80
2022/04/24 05:37:36;;;;;;;4.95;3.53;;;;;;;12.13;100.00;63251.72;5109281;28;20473;-81
2022/04/24 05:40:06;;;;;;;4.85;3.13;;;;;;;12.20;97.82;63256.41;5109072;28;20192;-79
2022/04/24 05:42:33;;;;;;;4.75;3.28;;;;;;;12.42;96.00;63278.72;5109450;28;20238;-80
2022/04/24 05:45:00;;;;;;;5.88;2.70;;;;;;;12.44;93.94;63278.22;5109403;28;20422;-79
2022/04/24 05:47:28;;;;;;;3.20;2.60;;;;;;;12.52;95.44;63286.53;5109608;28;20216;-81
2022/04/24 05:49:55;;;;;;;3.13;2.83;;;;;;;12.66;93.31;63306.16;5110204;28;20229;-79
2022/04/24 05:52:23;;;;;;;3.45;2.72;;;;;;;12.72;91.02;63307.78;5110962;28;20286;-80
2022/04/24 05:54:50;;;;;;;3.50;2.50;;;;;;;12.78;89.06;63316.03;5110801;28;20227;-80
2022/04/24 05:57:18;;;;;;;2.40;2.20;;;;;;;12.97;90.78;63335.22;5110802;28;20529;-80
2022/04/24 05:59:46;;;;;;;4.32;1.95;;;;;;;13.28;89.59;63367.41;5110670;28;20196;-80
2022/04/24 06:02:13;;;;;;;5.78;2.97;;;;;;;13.56;85.34;63399.53;5110688;28;20216;-80
2022/04/24 06:04:41;;;;;;;7.18;2.13;;;;;;;13.69;83.94;63410.47;5111110;28;20223;-80
2022/04/24 06:07:10;;;;;;;3.58;2.40;;;;;;;13.82;80.81;63423.94;5111556;28;20261;-80
2022/04/24 06:09:36;;;;;;;6.18;2.03;;;;;;;13.82;80.56;63426.00;5112613;28;20241;-80
2022/04/24 06:12:04;;;;;;;2.92;2.38;;;;;;;13.88;79.59;63432.22;5111047;28;20261;-81
2022/04/24 06:14:32;;;;;;;3.42;2.40;;;;;;;13.99;80.32;63443.13;5112210;28;20371;-79
2022/04/24 06:17:00;;;;;;;7.28;2.25;;;;;;;14.05;79.66;63446.81;5113514;28;20224;-79
2022/04/24 06:19:27;;;;;;;3.38;2.50;;;;;;;14.00;79.42;63442.13;5114332;28;20566;-81
2022/04/24 06:21:54;;;;;;;2.70;2.50;;;;;;;13.83;79.24;63422.44;5111373;28;20196;-80
2022/04/24 06:24:21;;;;;;;2.97;2.58;;;;;;;13.75;79.47;63421.28;5109607;28;20224;-80
2022/04/24 06:26:48;;;;;;;4.15;2.83;;;;;;;13.59;81.94;63391.88;5109729;28;20361;-80
2022/04/24 06:29:15;;;;;;;5.00;2.58;;;;;;;13.60;82.32;63403.69;5109813;28;20195;-81
2022/04/24 06:31:43;;;;;;;6.15;3.00;;;;;;;13.67;81.87;63410.41;5110048;28;20196;-80
2022/04/24 06:34:10;;;;;;;2.55;2.33;;;;;;;13.76;81.64;63420.28;5110033;28;20203;-79
2022/04/24 06:36:38;;;;;;;3.97;2.70;;;;;;;13.89;80.97;63430.72;5110000;28;20370;-81
2022/04/24 06:39:05;;;;;;;6.55;2.75;;;;;;;13.80;78.75;63421.88;5109956;28;20234;-79
2022/04/24 06:41:31;;;;;;;7.20;2.38;;;;;;;13.78;79.50;63416.72;5110485;28;20467;-81
2022/04/24 06:43:58;;;;;;;2.28;2.17;;;;;;;14.08;79.37;63447.34;5110801;28;20261;-80
2022/04/24 06:46:25;;;;;;;4.03;2.72;;;;;;;14.18;77.16;63460.81;5110385;28;20199;-81
2022/04/24 06:48:54;;;;;;;5.95;2.35;;;;;;;14.06;77.63;63445.28;5114623;28;20279;-79
2022/04/24 06:51:23;;;;;;;4.97;2.58;;;;;;;14.03;77.13;63449.84;5113421;28;20207;-79
2022/04/24 06:53:50;;;;;;;2.53;2.33;;;;;;;14.12;76.70;63457.13;5110761;28;20220;-81
2022/04/24 06:56:17;;;;;;;2.88;2.42;;;;;;;14.34;76.87;63476.94;5110340;28;20199;-80
2022/04/24 06:58:44;;;;;;;3.58;2.28;;;;;;;14.38;76.82;63478.50;5108937;28;20223;-80
2022/04/24 07:01:11;;;;;;;2.15;2.05;;;;;;;14.32;77.43;63477.41;5109816;28;20203;-79
2022/04/24 07:03:40;;;;;;;6.00;2.83;;;;;;;14.46;76.68;63487.34;5109790;28;20249;-80
2022/04/24 07:06:09;;;;;;;4.38;2.90;;;;;;;14.43;75.98;63486.25;5109516;28;20241;-80
2022/04/24 07:08:35;;;;;;;2.13;1.92;;;;;;;14.59;74.45;63500.31;5109399;28;20224;-80
2022/04/24 07:11:03;;;;;;;3.78;2.10;;;;;;;14.80;75.17;63525.22;5109217;28;20241;-81
2022/04/24 07:13:30;;;;;;;3.30;2.20;;;;;;;14.99;73.32;63549.56;5108785;28;20253;-80
2022/04/24 07:15:57;;;;;;;2.50;2.30;;;;;;;15.24;71.46;63572.97;5109246;28;20233;-79
2022/04/24 07:18:25;;;;;;;4.00;1.80;;;;;;;15.52;70.31;63599.53;5110413;28;20684;-80
2022/04/24 07:20:55;;;;;;;2.95;2.00;;;;;;;15.72;68.40;63622.88;5108795;28;20195;-79
2022/04/24 07:23:24;;;;;;;2.08;1.98;;;;;;;15.79;67.75;63629.66;5109083;28;20441;-80
2022/04/24 07:25:51;;;;;;;2.85;2.30;;;;;;;15.98;66.15;63646.84;5110194;28;20254;-80
2022/04/24 07:28:19;;;;;;;4.00;1.90;;;;;;;16.03;68.14;63654.63;5110402;28;20215;-79
2022/04/24 07:30:47;;;;;;;2.33;2.13;;;;;;;16.11;67.15;63660.38;5109895;28;20240;-79
2022/04/24 07:33:14;;;;;;;1.80;1.70;;;;;;;16.09;65.43;63660.84;5111401;28;20215;-79
2022/04/24 07:35:42;;;;;;;5.45;2.03;;;;;;;16.06;65.61;63655.16;5113517;28;20199;-82
2022/04/24 07:38:09;;;;;;;8.32;2.33;;;;;;;16.25;65.06;63679.53;5113451;28;20223;-79
2022/04/24 07:40:40;;;;;;;5.45;2.20;;;;;;;16.41;65.35;63691.06;5112220;28;20195;-81
2022/04/24 07:43:08;;;;;;;1.90;1.80;;;;;;;16.32;64.43;63687.34;5108064;28;20357;-79
2022/04/24 07:45:37;;;;;;;4.50;2.05;;;;;;;16.26;62.74;63678.53;5109361;28;20226;-80
2022/04/24 07:48:05;;;;;;;1.85;1.75;;;;;;;16.40;62.81;63692.56;5111033;28;20638;-79
2022/04/24 07:50:35;;;;;;;1.70;1.60;;;;;;;16.60;60.78;63713.91;5108947;28;20211;-79
2022/04/24 07:53:03;;;;;;;5.15;1.85;;;;;;;16.33;60.60;63682.72;5108150;28;20220;-79
2022/04/24 07:55:30;;;;;;;4.57;1.70;;;;;;;16.40;60.75;63690.53;5107865;28;20198;-79
2022/04/24 07:58:02;;;;;;;2.97;1.48;;;;;;;16.51;60.64;63704.56;5107106;28;20455;-81
2022/04/24 08:00:31;;;;;;;2.53;1.67;;;;;;;16.64;59.06;63720.13;5109457;28;20585;-81
2022/04/24 08:03:01;;;;;;;2.47;1.55;;;;;;;16.89;59.29;63738.44;5107677;28;20242;-79
2022/04/24 08:05:29;;;;;;;3.05;1.13;;;;;;;17.02;57.86;63755.06;5108023;28;20282;-81
2022/04/24 08:07:58;;;;;;;2.47;1.63;;;;;;;17.17;58.60;63770.16;5109708;28;20540;-80
2022/04/24 08:10:32;;;;;;;6.90;1.92;;;;;;;17.44;57.33;63797.72;5108211;28;20195;-79
2022/04/24 08:13:03;;;;;;;3.13;1.65;;;;;;;17.38;57.50;63794.56;5108371;28;20230;-81
2022/04/24 08:15:31;;;;;;;1.70;1.60;;;;;;;17.53;58.63;63810.22;5107917;28;20198;-81
2022/04/24 08:17:58;;;;;;;5.43;1.50;;;;;;;17.65;57.82;63815.00;5106680;28;20211;-80
2022/04/24 08:20:25;;;;;;;4.60;2.15;;;;;;;17.60;57.60;63814.41;5107555;28;20368;-81
2022/04/24 08:22:54;;;;;;;1.88;1.73;;;;;;;17.70;57.49;63824.81;5107884;28;20549;-79
2022/04/24 08:25:23;;;;;;;4.93;2.33;;;;;;;18.00;58.54;63856.59;5107362;28;20445;-80
2022/04/24 08:27:51;;;;;;;1.77;1.65;;;;;;;18.01;54.77;63857.13;5107041;28;20237;-81
2022/04/24 08:30:20;;;;;;;4.97;1.98;;;;;;;17.91;55.29;63846.69;5106566;28;20438;-80
2022/04/24 08:32:48;;;;;;;1.73;1.63;;;;;;;17.71;55.50;63823.28;5105789;28;20222;-80
2022/04/24 08:35:16;;;;;;;1.67;1.42;;;;;;;17.85;55.59;63840.44;5106734;28;20195;-82
2022/04/24 08:37:44;;;;;;;2.42;2.22;;;;;;;17.99;55.52;63855.56;5105900;28;20219;-80
2022/04/24 08:40:13;;;;;;;2.70;1.63;;;;;;;18.13;53.75;63874.75;5105488;28;20285;-80
2022/04/24 08:42:41;;;;;;;2.10;1.52;;;;;;;17.92;53.94;63847.72;5106176;28;20245;-80
2022/04/24 08:45:11;;;;;;;3.22;1.90;;;;;;;18.09;55.77;63863.38;5106708;28;20281;-80
2022/04/24 08:47:40;;;;;;;2.45;1.98;;;;;;;18.42;54.81;63897.25;5107328;28;20512;-80
2022/04/24 08:50:08;;;;;;;5.28;1.70;;;;;;;18.74;53.57;63935.75;5105969;28;20191;-80
2022/04/24 08:52:35;;;;;;;4.78;2.30;;;;;;;18.83;53.64;63940.00;5105825;28;20215;-80
2022/04/24 08:55:03;;;;;;;3.30;2.05;;;;;;;18.63;53.21;63928.94;5105742;28;20264;-81
2022/04/24 08:57:30;;;;;;;2.22;2.10;;;;;;;18.78;52.82;63936.84;5106519;28;20219;-80
2022/04/24 08:59:58;;;;;;;3.47;2.08;;;;;;;18.99;52.44;63961.84;5108716;28;20507;-79
2022/04/24 09:02:26;;;;;;;4.93;2.13;;;;;;;18.95;52.02;63957.13;5109405;28;20221;-80
2022/04/24 09:04:55;;;;;;;6.65;2.28;;;;;;;19.25;51.64;63993.59;5108109;28;20227;-79
2022/04/24 09:07:24;;;;;;;2.47;2.28;;;;;;;19.23;50.74;63986.31;5107761;28;20223;-80
2022/04/24 09:09:53;;;;;;;5.03;1.60;;;;;;;19.05;51.18;63968.06;5109972;28;20195;-79
2022/04/24 09:12:24;;;;;;;3.10;1.60;;;;;;;19.28;51.84;63994.13;5110510;28;20313;-80
2022/04/24 09:14:54;;;;;;;3.58;1.52;;;;;;;19.33;51.09;63996.78;5111090;28;20221;-80
2022/04/24 09:17:23;;;;;;;2.00;1.63;;;;;;;19.34;51.37;63997.81;5108631;28;20561;-80
2022/04/24 09:19:51;;;;;;;2.13;1.95;;;;;;;19.57;51.63;64019.22;5108031;28;20199;-80
2022/04/24 09:22:19;;;;;;;3.55;1.92;;;;;;;19.70;51.49;64037.44;5110250;28;20216;-80
2022/04/24 09:24:49;;;;;;;2.33;2.00;;;;;;;19.92;48.98;64055.19;5112213;28;20265;-80
2022/04/24 09:27:24;;;;;;;3.58;1.88;;;;;;;19.99;49.34;64063.03;5109861;28;20246;-80
2022/04/24 09:29:54;;;;;;;8.00;2.40;;;;;;;20.03;48.21;64069.81;5110553;28;20476;-79
2022/04/24 09:32:22;;;;;;;3.95;1.80;;;;;;;19.88;48.93;64056.72;5112376;28;20219;-80
2022/04/24 09:34:49;;;;;;;3.30;2.28;;;;;;;20.08;49.62;64077.06;5114235;28;20195;-80
2022/04/24 09:37:16;;;;;;;4.90;1.80;;;;;;;20.03;49.34;64064.09;5112931;28;20246;-80
2022/04/24 09:39:44;;;;;;;2.38;1.83;;;;;;;20.11;48.53;64075.56;5111839;28;20196;-79
2022/04/24 09:42:12;;;;;;;2.38;1.92;;;;;;;20.23;47.91;64087.56;5112656;28;20219;-81
2022/04/24 09:44:41;;;;;;;4.53;2.30;;;;;;;20.19;49.01;64086.00;5114051;28;20223;-81
2022/04/24 09:47:08;;;;;;;2.28;1.90;;;;;;;20.45;47.72;64113.63;5113634;28;20286;-80
2022/04/24 09:49:37;;;;;;;2.85;1.90;;;;;;;20.53;48.77;64122.00;5112278;28;20222;-79
2022/04/24 09:52:09;;;;;;;2.63;1.80;;;;;;;20.36;49.24;64103.72;5112556;28;20276;-81
2022/04/24 09:54:38;;;;;;;3.17;1.67;;;;;;;20.28;48.88;64090.72;5111432;28;20218;-79
2022/04/24 09:57:08;;;;;;;4.18;2.28;;;;;;;20.45;48.41;64113.63;5111232;28;20281;-80
2022/04/24 09:59:41;;;;;;;3.17;2.00;;;;;;;20.41;47.45;64106.88;5110892;28;20211;-80
2022/04/24 10:02:08;;;;;;;4.43;2.13;;;;;;;20.21;49.22;64088.59;5110673;28;20286;-80
2022/04/24 10:04:36;;;;;;;4.85;1.73;;;;;;;20.22;48.54;64084.47;5109437;28;20225;-81
2022/04/24 10:07:06;;;;;;;8.10;2.40;;;;;;;20.22;48.24;64087.06;5110024;28;20433;-78
2022/04/24 10:09:35;;;;;;;2.25;2.15;;;;;;;20.27;47.61;64092.28;5111159;28;20293;-79
2022/04/24 10:12:05;;;;;;;2.33;2.00;;;;;;;20.45;47.57;64111.06;5114233;28;20205;-80
2022/04/24 10:14:38;;;;;;;4.93;2.10;;;;;;;20.56;48.37;64122.53;5115781;28;20521;-79
2022/04/24 10:17:21;;;;;;;2.33;1.63;;;;;;;20.52;47.68;64120.41;5114069;28;20469;-80
2022/04/24 10:20:15;;;;;;;3.28;2.20;;;;;;;20.83;47.17;64152.78;5111015;28;20539;-80
2022/04/24 10:22:46;;;;;;;4.45;2.08;;;;;;;20.94;47.74;64161.69;5109774;28;20245;-80
2022/04/24 10:25:15;;;;;;;3.17;2.20;;;;;;;21.25;47.52;64193.53;5109067;28;20231;-79
2022/04/24 10:27:43;;;;;;;2.65;2.08;;;;;;;21.46;44.87;64215.47;5108433;28;20241;-80
2022/04/24 10:30:20;;;;;;;3.55;1.73;;;;;;;21.54;46.00;64226.94;5108217;28;20277;-80
2022/04/24 10:32:48;;;;;;;3.40;1.92;;;;;;;21.47;45.78;64217.03;5108900;28;20218;-79
2022/04/24 10:35:17;;;;;;;4.38;1.70;;;;;;;21.59;44.23;64234.75;5108737;28;20203;-79
2022/04/24 10:37:45;;;;;;;6.50;2.10;;;;;;;21.79;44.14;64252.56;5108121;28;20215;-79
2022/04/24 10:40:16;;;;;;;2.70;2.00;;;;;;;22.13;43.69;64284.97;5107798;28;20209;-79
2022/04/24 10:42:45;;;;;;;3.30;2.10;;;;;;;22.31;43.55;64303.78;5108897;28;20220;-79
2022/04/24 10:45:15;;;;;;;5.10;2.42;;;;;;;22.55;43.22;64332.03;5111893;28;20223;-79
2022/04/24 10:47:47;;;;;;;1.67;1.55;;;;;;;22.72;43.54;64344.06;5112471;28;20238;-80
2022/04/24 10:50:18;;;;;;;7.25;2.50;;;;;;;22.60;43.05;64342.44;5111278;28;20499;-80
2022/04/24 10:52:46;;;;;;;5.13;1.95;;;;;;;22.77;44.20;64360.22;5109803;28;20270;-79
2022/04/24 10:55:14;;;;;;;2.00;1.88;;;;;;;22.78;42.08;64352.94;5108187;28;20200;-80
2022/04/24 10:57:43;;;;;;;2.88;2.03;;;;;;;22.62;42.20;64336.72;5107960;28;20207;-81
2022/04/24 11:00:23;;;;;;;2.25;2.00;;;;;;;22.56;44.02;64330.47;5106773;28;20324;-79
2022/04/24 11:02:52;;;;;;;3.47;1.90;;;;;;;22.68;46.29;64342.47;5108392;28;20275;-80
2022/04/24 11:05:21;;;;;;;2.00;1.75;;;;;;;22.84;44.97;64359.22;5108367;28;20249;-79
2022/04/24 11:07:48;;;;;;;2.15;1.40;;;;;;;;;;5106878;28;20282;-79
2022/04/24 11:10:20;;;;;;;4.75;1.95;;;;;;;23.03;41.22;64379.09;5112010;28;20199;-81
2022/04/24 11:12:48;;;;;;;1.60;1.50;;;;;;;22.85;41.38;64362.84;5108671;28;20270;-80
2022/04/24 11:15:16;;;;;;;1.55;1.45;;;;;;;23.06;40.65;64386.88;5108395;28;20207;-79
2022/04/24 11:17:44;;;;;;;6.93;2.05;;;;;;;23.13;40.07;64392.13;5108216;28;20662;-81
2022/04/24 11:20:13;;;;;;;2.40;1.77;;;;;;;23.18;40.70;64394.78;5108309;28;20199;-80
2022/04/24 11:22:48;;;;;;;5.05;2.15;;;;;;;23.00;42.45;64372.81;5108271;28;20215;-80
2022/04/24 11:25:16;;;;;;;4.55;1.85;;;;;;;22.87;41.54;64362.34;5108610;28;20226;-79
2022/04/24 11:27:45;;;;;;;4.80;2.00;;;;;;;22.75;40.83;64352.94;5107981;28;20212;-79
2022/04/24 11:30:16;;;;;;;3.60;1.90;;;;;;;22.85;40.94;64357.66;5107891;28;20203;-80
2022/04/24 11:32:55;;;;;;;4.18;1.60;;;;;;;23.00;43.29;64381.16;5106935;28;20211;-80
2022/04/24 11:35:23;;;;;;;5.25;1.90;;;;;;;23.15;40.87;64391.09;5108039;28;20217;-81